Time;durP1;ratioP1;P1;durP2;ratioP2;P2;SDS_P1;SDS_P2;PMS_P1;PMS_P2;Temp;Humidity;BMP_temperature;BMP_pressure;BME280_temperature;BME280_humidity;BME280_pressure;Samples;Min_cycle;Max_cycle;Signal;HPM_P1;HPM_P2
2023/02/18 00:04:59;;;;;;;23.77;10.37;;;;;;;1.38;100.00;100296.66;31213918;28;20688;-75
2023/02/18 00:20:03;;;;;;;20.87;9.47;;;;;;;1.44;100.00;100291.78;31214260;28;20112;-76
2023/02/18 00:35:05;;;;;;;22.73;10.20;;;;;;;1.46;100.00;100276.94;31235538;28;20509;-75
2023/02/18 00:50:08;;;;;;;29.73;10.50;;;;;;;1.30;100.00;100242.22;31239818;28;20053;-76
2023/02/18 01:05:10;;;;;;;24.53;10.80;;;;;;;1.23;100.00;100220.69;31252720;28;20049;-75
2023/02/18 01:20:13;;;;;;;18.47;8.57;;;;;;;1.27;100.00;100218.09;31230049;28;20049;-75
2023/02/18 01:35:17;;;;;;;21.33;9.77;;;;;;;1.38;100.00;100181.63;31235534;28;20045;-75
2023/02/18 01:50:19;;;;;;;35.17;11.57;;;;;;;1.42;100.00;100168.31;31216441;28;20084;-74
2023/02/18 02:05:21;;;;;;;31.00;10.67;;;;;;;1.33;100.00;100163.97;31236196;28;20099;-80
2023/02/18 02:20:52;;;;;;;29.47;9.73;;;;;;;1.22;100.00;100151.50;31238714;28;20054;-78
2023/02/18 02:36:19;;;;;;;20.37;9.80;;;;;;;1.39;100.00;100118.97;31248588;28;20107;-79
2023/02/18 02:51:28;;;;;;;20.00;8.67;;;;;;;1.44;100.00;100118.66;31233578;28;20100;-78
2023/02/18 03:06:46;;;;;;;20.90;8.40;;;;;;;1.31;100.00;100103.94;31242461;28;20378;-79
2023/02/18 03:21:54;;;;;;;23.70;9.67;;;;;;;1.26;100.00;100080.16;31248245;28;20463;-79
2023/02/18 03:36:58;;;;;;;23.40;9.77;;;;;;;1.46;100.00;100057.56;31251732;28;20053;-79
2023/02/18 03:52:01;;;;;;;23.00;9.27;;;;;;;1.45;100.00;100045.31;31265489;28;20113;-80
2023/02/18 04:07:03;;;;;;;29.77;9.37;;;;;;;1.44;100.00;100033.06;31252311;28;20053;-79
2023/02/18 04:22:05;;;;;;;28.47;8.93;;;;;;;1.48;100.00;99990.31;31252963;28;20464;-79
2023/02/18 04:37:06;;;;;;;22.70;7.30;;;;;;;1.38;100.00;99937.44;31252828;28;20050;-80
2023/02/18 04:52:08;;;;;;;39.70;10.17;;;;;;;1.53;100.00;99934.63;31235398;28;20103;-79
2023/02/18 05:07:11;;;;;;;33.67;7.70;;;;;;;1.61;100.00;99932.81;31276954;28;20443;-78
2023/02/18 05:22:13;;;;;;;17.73;7.10;;;;;;;1.75;100.00;99903.56;31266895;28;20058;-80
2023/02/18 05:37:17;;;;;;;24.17;6.27;;;;;;;1.74;100.00;99890.53;31259056;28;20049;-80
2023/02/18 05:52:19;;;;;;;8.93;4.60;;;;;;;1.76;100.00;99862.28;31257353;28;20060;-81
2023/02/18 06:07:21;;;;;;;70.57;8.17;;;;;;;1.77;100.00;99830.94;31274959;28;20056;-80
2023/02/18 06:22:23;;;;;;;46.07;5.63;;;;;;;1.48;100.00;99829.81;31237198;28;20045;-79
2023/02/18 06:37:28;;;;;;;52.57;6.83;;;;;;;1.73;100.00;99806.03;31244614;28;20049;-80
2023/02/18 06:52:32;;;;;;;19.97;6.17;;;;;;;1.74;100.00;99756.72;31217821;28;20084;-79
2023/02/18 07:07:34;;;;;;;13.43;5.90;;;;;;;1.83;100.00;99733.13;31227554;28;20123;-77
2023/02/18 07:22:36;;;;;;;19.53;7.67;;;;;;;1.92;100.00;99704.13;31226509;28;20049;-81
2023/02/18 07:37:38;;;;;;;21.17;7.47;;;;;;;1.79;100.00;99694.84;31246480;28;20056;-81
2023/02/18 07:52:40;;;;;;;28.13;8.13;;;;;;;1.86;100.00;99654.78;31240844;28;20084;-79
2023/02/18 08:07:42;;;;;;;24.90;9.80;;;;;;;1.96;100.00;99622.72;31206969;28;20053;-78
2023/02/18 08:22:44;;;;;;;24.50;11.43;;;;;;;2.14;100.00;99574.63;31235537;28;20045;-77
2023/02/18 08:37:46;;;;;;;23.03;9.77;;;;;;;2.35;100.00;99497.09;31205752;28;20045;-75
2023/02/18 08:52:56;;;;;;;29.43;13.63;;;;;;;2.45;100.00;99454.63;31217631;28;20058;-76
2023/02/18 09:07:58;;;;;;;35.17;13.90;;;;;;;2.38;100.00;99428.56;31225563;28;20057;-75
2023/02/18 09:23:02;;;;;;;19.63;9.20;;;;;;;2.35;100.00;99389.94;31224272;28;20050;-74
2023/02/18 09:38:04;;;;;;;34.60;13.60;;;;;;;2.19;100.00;99330.59;31232381;28;20482;-79
2023/02/18 09:53:06;;;;;;;28.17;11.97;;;;;;;2.34;100.00;99300.03;31226543;28;20057;-79
2023/02/18 10:08:26;;;;;;;39.73;13.57;;;;;;;2.70;100.00;99214.25;31241078;28;20052;-80
2023/02/18 10:23:30;;;;;;;26.53;10.50;;;;;;;2.90;100.00;99145.63;31259371;28;20045;-82
2023/02/18 10:39:08;;;;;;;25.67;11.70;;;;;;;3.32;100.00;99091.00;31254372;28;20052;-83
2023/02/18 10:54:13;;;;;;;39.03;15.47;;;;;;;3.49;100.00;99067.91;31238710;28;20045;-79
2023/02/18 11:09:36;;;;;;;45.77;16.20;;;;;;;3.84;100.00;99033.84;31241992;28;20463;-80
2023/02/18 11:24:38;;;;;;;27.67;12.97;;;;;;;4.26;100.00;99005.78;31263146;28;20474;-81
2023/02/18 11:39:44;;;;;;;31.60;13.73;;;;;;;4.62;100.00;98973.84;31239097;28;20052;-84
2023/02/18 11:55:12;;;;;;;27.10;12.67;;;;;;;4.87;100.00;98947.38;31257534;28;20091;-84
2023/02/18 12:10:22;;;;;;;41.00;14.23;;;;;;;5.13;100.00;98900.84;31246226;28;20111;-81
2023/02/18 12:25:30;;;;;;;33.50;14.70;;;;;;;5.88;100.00;98904.13;31262904;28;20464;-83
2023/02/18 12:40:31;;;;;;;42.63;17.67;;;;;;;5.91;100.00;98914.06;31260442;28;20041;-88
2023/02/18 12:55:54;;;;;;;40.37;17.50;;;;;;;6.21;100.00;98951.56;31287610;28;20103;-79
2023/02/18 13:11:20;;;;;;;37.50;16.30;;;;;;;6.30;100.00;98959.84;31224789;28;20115;-73
2023/02/18 13:26:24;;;;;;;40.87;17.37;;;;;;;6.53;100.00;98979.78;31205241;28;20046;-73
2023/02/18 13:41:26;;;;;;;39.80;17.10;;;;;;;6.96;100.00;99004.66;31203380;28;20112;-76
2023/02/18 13:56:31;;;;;;;43.10;18.27;;;;;;;6.94;100.00;98993.53;31214244;28;20432;-72
2023/02/18 14:11:40;;;;;;;37.97;17.03;;;;;;;7.15;100.00;99006.53;31183332;28;20395;-73
2023/02/18 14:26:45;;;;;;;40.07;19.00;;;;;;;7.17;100.00;99033.84;31236323;28;20647;-74
2023/02/18 14:41:59;;;;;;;37.13;16.03;;;;;;;6.98;100.00;99010.41;31222198;28;20574;-75
2023/02/18 14:57:06;;;;;;;42.23;17.23;;;;;;;6.87;100.00;98992.91;31209117;28;20076;-72
2023/02/18 15:12:08;;;;;;;28.40;13.80;;;;;;;6.95;100.00;98986.94;31234505;28;20052;-75
2023/02/18 15:27:14;;;;;;;24.87;9.57;;;;;;;6.84;100.00;99043.84;31232842;28;20064;-74
2023/02/18 15:42:22;;;;;;;16.17;6.83;;;;;;;6.58;100.00;99076.38;31219229;28;20061;-72
2023/02/18 15:57:27;;;;;;;10.93;4.23;;;;;;;6.53;100.00;99115.38;31244151;28;20053;-74
2023/02/18 16:12:31;;;;;;;12.47;4.27;;;;;;;6.62;100.00;99130.97;31247727;28;20049;-72
2023/02/18 16:27:37;;;;;;;10.70;4.60;;;;;;;6.72;100.00;99165.84;31241230;28;20463;-75
2023/02/18 16:42:38;;;;;;;10.40;3.63;;;;;;;6.46;100.00;99180.19;31215821;28;20092;-74
2023/02/18 16:57:40;;;;;;;7.27;3.33;;;;;;;6.25;100.00;99210.97;31215096;28;22117;-72
2023/02/18 17:12:43;;;;;;;3.30;2.60;;;;;;;5.90;100.00;99203.47;31234964;28;20045;-73
2023/02/18 17:27:45;;;;;;;11.10;3.37;;;;;;;5.80;100.00;99207.81;31242712;28;20053;-73
2023/02/18 17:42:49;;;;;;;5.40;2.40;;;;;;;5.74;100.00;99212.88;31216427;28;20500;-80
2023/02/18 17:57:52;;;;;;;6.13;1.87;;;;;;;5.74;100.00;99223.66;31206395;28;20045;-75
2023/02/18 18:13:03;;;;;;;11.40;2.27;;;;;;;5.83;100.00;99234.69;31226009;28;20049;-75
2023/02/18 18:28:07;;;;;;;10.40;3.67;;;;;;;5.64;100.00;99240.75;31227977;28;20460;-74
2023/02/18 18:43:17;;;;;;;6.40;2.33;;;;;;;5.48;100.00;99227.09;31242962;28;20103;-74
2023/02/18 18:58:23;;;;;;;5.93;2.00;;;;;;;5.60;100.00;99244.63;31258141;28;20045;-74
2023/02/18 19:13:26;;;;;;;;;;;;;;;5.64;100.00;99235.34;31214163;28;20184;-74
2023/02/18 19:28:30;;;;;;;10.97;2.90;;;;;;;5.73;100.00;99238.28;31194425;28;19922;-73
2023/02/18 19:43:32;;;;;;;5.10;2.20;;;;;;;5.91;100.00;99231.91;31211765;28;20056;-75
2023/02/18 19:58:35;;;;;;;7.13;2.50;;;;;;;6.65;100.00;99243.44;31230512;28;20057;-74
2023/02/18 20:13:38;;;;;;;10.70;3.90;;;;;;;6.41;100.00;99253.47;31197138;28;20053;-74
2023/02/18 20:28:40;;;;;;;5.67;2.70;;;;;;;6.40;100.00;99255.41;31213714;28;20050;-75
2023/02/18 20:43:42;;;;;;;6.70;2.73;;;;;;;5.94;100.00;99264.19;31200383;28;20046;-80
2023/02/18 20:58:44;;;;;;;6.40;2.53;;;;;;;5.62;100.00;99264.63;31247919;28;20150;-75
2023/02/18 21:13:47;;;;;;;5.93;2.40;;;;;;;5.52;100.00;99265.50;31219740;28;20068;-73
2023/02/18 21:28:59;;;;;;;4.20;2.70;;;;;;;5.61;100.00;99273.84;31210649;28;20104;-80
2023/02/18 21:44:02;;;;;;;4.80;2.17;;;;;;;5.60;100.00;99280.41;31250165;28;20061;-79
2023/02/18 21:59:03;;;;;;;8.23;3.20;;;;;;;5.44;100.00;99285.59;31261084;28;20065;-80
2023/02/18 22:14:07;;;;;;;10.17;3.07;;;;;;;5.49;100.00;99293.22;31215848;28;20103;-79
2023/02/18 22:29:11;;;;;;;5.70;2.43;;;;;;;5.52;100.00;99295.13;31232085;28;20059;-79
2023/02/18 22:44:15;;;;;;;7.77;2.90;;;;;;;5.27;100.00;99291.94;31230945;28;20103;-80
2023/02/18 22:59:18;;;;;;;5.13;2.33;;;;;;;5.16;100.00;99284.00;31231062;28;20681;-79
2023/02/18 23:14:20;;;;;;;9.33;2.60;;;;;;;5.53;100.00;99275.09;31232948;28;20152;-79
2023/02/18 23:29:22;;;;;;;8.47;2.33;;;;;;;5.60;100.00;99299.25;31230512;28;20053;-81
2023/02/18 23:44:25;;;;;;;5.03;2.63;;;;;;;5.89;100.00;99309.69;31220509;28;20062;-80
2023/02/18 23:59:28;;;;;;;9.10;4.37;;;;;;;5.99;100.00;99289.91;31214918;28;20080;-80
